TLPL/UVF METAR and TAF weather

Enter ICAO airport designator
Station Type Date Time Source
TLPL METAR 2022/01/25 05:00 UTC NOAA

TLPL 250500Z 07014KT 9999 FEW026 25/21 Q1014 NOSIG


Station Type Date Time Source
TLPL Decoded METAR 2022/01/25 05:00 UTC NOAA

Hewanorra International Airport, Saint Lucia (TLPL) 13-45N 060-57W 10M
Jan 25, 2022 - 12:00 AM EST / 2022.01.25 0500 UTC
Wind: from the ENE (070 degrees) at 16 MPH (14 KT):0
Visibility: greater than 7 mile(s):0
Sky conditions: mostly clear
Temperature: 77 F (25 C)
Dew Point: 69 F (21 C)
Relative Humidity: 78%
Pressure (altimeter): 29.94 in. Hg (1014 hPa)
ob: TLPL 250500Z 07014KT 9999 FEW026 25/21 Q1014 NOSIG
cycle: 5

Station Type Date Time Source
TLPL TAF 2022/01/25 06:17 UTC NOAA

TAF TLPL 250510Z 2506/2606 08018KT 9999 SCT026 SCT040
TEMPO 2509/2518 SHRA BKN015 BKN040 PROB30
TEMPO 2600/2606 5000 SHRA SCT015 BKN040

Example: see airport list